createdAt,value
2024-01-24T00:01:05.454Z,101231.81
2024-01-24T00:03:33.943Z,101245.09
2024-01-24T00:06:02.236Z,101242.72
2024-01-24T00:08:30.675Z,101239.31
2024-01-24T00:10:58.902Z,101244.88
2024-01-24T00:13:27.093Z,101234.94
2024-01-24T00:15:55.443Z,101223.25
2024-01-24T00:18:28.644Z,101208.13
2024-01-24T00:20:56.921Z,101224.47
2024-01-24T00:23:26.237Z,101217.22
2024-01-24T00:25:54.533Z,101235.50
2024-01-24T00:28:27.873Z,101227.63
2024-01-24T00:30:56.204Z,101233.03
2024-01-24T00:33:28.985Z,101239.50
2024-01-24T00:35:57.469Z,101249.47
2024-01-24T00:38:25.743Z,101262.25
2024-01-24T00:40:54.020Z,101256.19
2024-01-24T00:43:22.708Z,101240.94
2024-01-24T00:45:51.531Z,101256.50
2024-01-24T00:48:19.493Z,101259.19
2024-01-24T00:50:47.762Z,101247.00
2024-01-24T00:53:21.001Z,101260.66
2024-01-24T00:55:49.865Z,101264.31
2024-01-24T00:58:18.131Z,101262.69
2024-01-24T01:00:46.488Z,101266.34
2024-01-24T01:03:14.866Z,101271.75
2024-01-24T01:05:43.632Z,101281.72
2024-01-24T01:08:12.357Z,101262.81
2024-01-24T01:10:40.985Z,101246.69
2024-01-24T01:13:10.572Z,101253.06
2024-01-24T01:15:38.849Z,101265.69
2024-01-24T01:18:08.408Z,101237.94
2024-01-24T01:20:36.634Z,101286.66
2024-01-24T01:23:05.212Z,101260.53
2024-01-24T01:25:33.407Z,101255.34
2024-01-24T01:28:01.709Z,101249.19
2024-01-24T01:30:30.067Z,101245.59
2024-01-24T01:32:58.426Z,101254.69
2024-01-24T01:35:26.744Z,101244.75
2024-01-24T01:37:54.985Z,101244.00
2024-01-24T01:40:23.310Z,101216.13
2024-01-24T01:42:54.026Z,101240.31
2024-01-24T01:45:22.757Z,101227.78
2024-01-24T01:47:55.210Z,101263.03
2024-01-24T01:50:23.469Z,101247.47
2024-01-24T01:52:52.059Z,101209.88
2024-01-24T01:55:20.303Z,101233.97
2024-01-24T01:57:50.063Z,101215.16
2024-01-24T02:00:22.454Z,101210.72
2024-01-24T02:02:51.676Z,101214.41
2024-01-24T02:05:20.038Z,101228.78
2024-01-24T02:07:48.544Z,101223.16
2024-01-24T02:10:17.230Z,101221.28
2024-01-24T02:12:45.526Z,101227.44
2024-01-24T02:15:14.550Z,101213.09
2024-01-24T02:17:42.606Z,101216.66
2024-01-24T02:20:11.526Z,101223.03
2024-01-24T02:22:39.794Z,101208.53
2024-01-24T02:25:08.927Z,101183.28
2024-01-24T02:27:37.226Z,101205.94
2024-01-24T02:30:07.069Z,101205.06
2024-01-24T02:32:35.410Z,101215.88
2024-01-24T02:35:03.649Z,101244.00
2024-01-24T02:37:32.547Z,101228.66
2024-01-24T02:40:00.832Z,101226.91
2024-01-24T02:42:29.708Z,101217.75
2024-01-24T02:44:57.957Z,101245.81
2024-01-24T02:47:26.296Z,101257.50
2024-01-24T02:49:54.659Z,101255.16
2024-01-24T02:52:22.931Z,101293.91
2024-01-24T02:54:51.246Z,101268.94
2024-01-24T02:57:19.688Z,101263.56
2024-01-24T02:59:47.963Z,101263.78
2024-01-24T03:02:16.210Z,101277.38
2024-01-24T03:04:44.484Z,101264.97
2024-01-24T03:07:14.582Z,101271.34
2024-01-24T03:09:42.878Z,101279.53
2024-01-24T03:12:14.124Z,101287.75
2024-01-24T03:14:42.376Z,101304.06
2024-01-24T03:17:10.885Z,101298.78
2024-01-24T03:19:39.274Z,101295.31
2024-01-24T03:22:07.939Z,101289.16
2024-01-24T03:24:36.155Z,101309.91
2024-01-24T03:27:04.437Z,101305.47
2024-01-24T03:29:33.153Z,101308.28
2024-01-24T03:32:01.358Z,101307.28
2024-01-24T03:34:32.493Z,101331.03
2024-01-24T03:37:00.739Z,101313.00
2024-01-24T03:39:30.023Z,101297.03
2024-01-24T03:41:58.207Z,101303.50
2024-01-24T03:44:26.433Z,101288.28
2024-01-24T03:46:54.906Z,101319.69
2024-01-24T03:49:23.699Z,101332.44
2024-01-24T03:51:52.194Z,101300.44
2024-01-24T03:54:21.135Z,101295.38
2024-01-24T03:56:49.368Z,101300.13
2024-01-24T03:59:17.872Z,101299.34
2024-01-24T04:01:46.119Z,101288.09
2024-01-24T04:04:14.554Z,101281.84
2024-01-24T04:06:43.044Z,101274.28
2024-01-24T04:09:11.673Z,101276.41
2024-01-24T04:11:40.707Z,101261.50
2024-01-24T04:14:10.878Z,101274.63
2024-01-24T04:16:41.667Z,101282.16
2024-01-24T04:19:10.107Z,101284.59
2024-01-24T04:21:43.773Z,101286.84
2024-01-24T04:24:12.625Z,101289.53
2024-01-24T04:26:41.629Z,101298.00
2024-01-24T04:29:12.799Z,101303.13
2024-01-24T04:31:45.590Z,101306.97
2024-01-24T04:34:14.344Z,101299.00
2024-01-24T04:36:42.798Z,101316.16
2024-01-24T04:39:11.670Z,101312.47
2024-01-24T04:41:41.225Z,101327.91
2024-01-24T04:44:09.715Z,101361.41
2024-01-24T04:46:38.024Z,101351.78
2024-01-24T04:49:06.824Z,101377.41
2024-01-24T04:51:35.802Z,101389.13
2024-01-24T04:54:04.083Z,101385.28
2024-01-24T04:56:32.324Z,101394.44
2024-01-24T04:59:00.484Z,101384.53
2024-01-24T05:01:29.613Z,101387.47
2024-01-24T05:03:58.129Z,101424.84
2024-01-24T05:06:26.443Z,101398.00
2024-01-24T05:08:54.917Z,101384.03
2024-01-24T05:11:25.626Z,101413.88
2024-01-24T05:13:55.179Z,101401.94
2024-01-24T05:16:23.420Z,101419.72
2024-01-24T05:18:51.876Z,101417.13
2024-01-24T05:21:20.207Z,101381.50
2024-01-24T05:23:48.892Z,101415.84
2024-01-24T05:26:18.199Z,101405.66
2024-01-24T05:28:46.582Z,101393.94
2024-01-24T05:31:15.080Z,101417.13
2024-01-24T05:33:43.441Z,101417.50
2024-01-24T05:36:11.933Z,101423.59
2024-01-24T05:38:40.536Z,101430.81
2024-01-24T05:41:10.516Z,101458.63
2024-01-24T05:43:38.965Z,101462.19
2024-01-24T05:46:07.520Z,101477.97
2024-01-24T05:48:35.851Z,101444.25
2024-01-24T05:51:04.288Z,101472.53
2024-01-24T05:53:34.668Z,101478.97
2024-01-24T05:56:03.026Z,101460.97
2024-01-24T05:58:31.309Z,101480.97
2024-01-24T06:00:59.675Z,101487.06
2024-01-24T06:03:27.959Z,101484.88
2024-01-24T06:05:56.795Z,101503.63
2024-01-24T06:08:25.119Z,101497.94
2024-01-24T06:10:56.306Z,101505.53
2024-01-24T06:13:24.724Z,101524.59
2024-01-24T06:15:53.351Z,101511.91
2024-01-24T06:18:21.805Z,101520.72
2024-01-24T06:20:50.224Z,101548.75
2024-01-24T06:23:18.852Z,101536.31
2024-01-24T06:25:47.143Z,101513.13
2024-01-24T06:28:15.957Z,101533.28
2024-01-24T06:30:44.169Z,101559.53
2024-01-24T06:33:14.464Z,101556.44
2024-01-24T06:35:42.724Z,101568.16
2024-01-24T06:38:11.130Z,101564.59
2024-01-24T06:40:39.376Z,101573.88
2024-01-24T06:43:07.795Z,101577.13
2024-01-24T06:45:36.380Z,101577.53
2024-01-24T06:48:04.735Z,101597.09
2024-01-24T06:50:33.002Z,101607.50
2024-01-24T06:53:01.324Z,101608.19
2024-01-24T06:55:29.521Z,101601.94
2024-01-24T06:57:58.078Z,101600.22
2024-01-24T07:00:28.346Z,101612.97
2024-01-24T07:02:56.744Z,101597.00
2024-01-24T07:05:25.041Z,101615.69
2024-01-24T07:07:54.487Z,101623.50
2024-01-24T07:10:23.318Z,101632.69
2024-01-24T07:12:52.714Z,101625.22
2024-01-24T07:15:23.024Z,101628.00
2024-01-24T07:17:51.350Z,101614.91
2024-01-24T07:20:28.084Z,101639.72
2024-01-24T07:22:56.308Z,101640.09
2024-01-24T07:25:25.700Z,101629.03
2024-01-24T07:27:54.803Z,101640.75
2024-01-24T07:30:26.322Z,101658.56
2024-01-24T07:32:54.614Z,101657.69
2024-01-24T07:35:22.907Z,101680.19
2024-01-24T07:37:51.074Z,101646.31
2024-01-24T07:40:19.387Z,101660.91
2024-01-24T07:42:48.009Z,101679.25
2024-01-24T07:45:16.756Z,101660.03
2024-01-24T07:47:45.876Z,101690.66
2024-01-24T07:50:14.555Z,101704.72
2024-01-24T07:52:45.183Z,101698.50
2024-01-24T07:55:14.257Z,101721.44
2024-01-24T07:57:43.575Z,101723.19
2024-01-24T08:00:18.993Z,101720.50
2024-01-24T08:02:50.835Z,101719.28
2024-01-24T08:05:21.156Z,101716.50
2024-01-24T08:07:49.794Z,101730.50
2024-01-24T08:10:19.039Z,101728.34
2024-01-24T08:12:48.036Z,101721.50
2024-01-24T08:15:16.425Z,101717.53
2024-01-24T08:17:45.271Z,101757.13
2024-01-24T08:20:14.064Z,101750.34
2024-01-24T08:22:42.342Z,101771.97
2024-01-24T08:25:10.599Z,101748.75
2024-01-24T08:27:39.060Z,101759.53
2024-01-24T08:30:08.303Z,101743.94
2024-01-24T08:32:42.031Z,101754.09
2024-01-24T08:35:10.779Z,101740.38
2024-01-24T08:37:40.236Z,101764.09
2024-01-24T08:40:11.021Z,101779.88
2024-01-24T08:42:41.808Z,101789.25
2024-01-24T08:45:10.675Z,101778.28
2024-01-24T08:47:39.514Z,101785.75
2024-01-24T08:50:09.368Z,101784.38
2024-01-24T08:52:37.923Z,101781.00
2024-01-24T08:55:08.961Z,101780.47
2024-01-24T08:57:37.931Z,101794.63
2024-01-24T09:00:09.147Z,101788.91
2024-01-24T09:02:37.771Z,101837.63
2024-01-24T09:05:08.162Z,101834.78
2024-01-24T09:07:37.386Z,101872.47
2024-01-24T09:10:10.119Z,101853.91
2024-01-24T09:12:38.934Z,101839.28
2024-01-24T09:15:08.237Z,101837.94
2024-01-24T09:17:37.165Z,101831.09
2024-01-24T09:20:07.725Z,101830.59
2024-01-24T09:22:36.411Z,101843.75
2024-01-24T09:25:08.209Z,101842.25
2024-01-24T09:27:42.404Z,101878.63
2024-01-24T09:30:11.471Z,101868.34
2024-01-24T09:32:39.902Z,101871.88
2024-01-24T09:35:08.727Z,101898.41
2024-01-24T09:37:36.800Z,101897.03
2024-01-24T09:40:08.212Z,101887.47
2024-01-24T09:42:44.803Z,101900.44
2024-01-24T09:45:17.993Z,101886.41
2024-01-24T09:47:48.802Z,101893.16
2024-01-24T09:50:17.654Z,101912.91
2024-01-24T09:52:47.857Z,101914.66
2024-01-24T09:55:20.762Z,101935.69
2024-01-24T09:57:49.969Z,101905.81
2024-01-24T10:00:18.919Z,101918.19
2024-01-24T10:02:48.478Z,101907.09
2024-01-24T10:05:20.771Z,101917.34
2024-01-24T10:07:49.385Z,101917.50
2024-01-24T10:10:17.914Z,101915.31
2024-01-24T10:12:46.929Z,101920.78
2024-01-24T10:15:15.626Z,101932.69
2024-01-24T10:17:46.959Z,101954.31
2024-01-24T10:20:15.191Z,101946.47
2024-01-24T10:22:47.684Z,101958.31
2024-01-24T10:25:16.185Z,101969.13
2024-01-24T10:27:44.690Z,101951.34
2024-01-24T10:30:18.750Z,101940.16
2024-01-24T10:32:49.018Z,101935.31
2024-01-24T10:35:18.091Z,101983.69
2024-01-24T10:37:46.486Z,101983.56
2024-01-24T10:40:17.816Z,101998.66
2024-01-24T10:42:51.845Z,101998.22
2024-01-24T10:45:23.695Z,101986.72
2024-01-24T10:47:53.823Z,101987.03
2024-01-24T10:50:23.173Z,101998.25
2024-01-24T10:52:54.933Z,102023.66
2024-01-24T10:55:23.952Z,101991.53
2024-01-24T10:57:52.381Z,102028.44
2024-01-24T11:00:24.076Z,102024.53
2024-01-24T11:02:56.046Z,102037.03
2024-01-24T11:05:47.800Z,102034.06
2024-01-24T11:08:51.319Z,102074.50
2024-01-24T11:11:21.820Z,102053.16
2024-01-24T11:13:52.167Z,102053.00
2024-01-24T11:16:38.640Z,102070.53
2024-01-24T11:19:47.779Z,102053.25
2024-01-24T11:22:30.293Z,102061.44
2024-01-24T11:25:00.780Z,102068.91
2024-01-24T11:27:37.762Z,102087.06
2024-01-24T11:30:13.613Z,102094.91
2024-01-24T11:32:46.511Z,102088.59
2024-01-24T11:35:34.164Z,102112.56
2024-01-24T11:38:26.255Z,102121.16
2024-01-24T11:41:04.366Z,102122.63
2024-01-24T11:43:37.687Z,102123.25
2024-01-24T11:46:10.129Z,102114.53
2024-01-24T11:48:41.054Z,102132.44
2024-01-24T11:51:12.467Z,102142.25
2024-01-24T11:53:40.957Z,102131.91
2024-01-24T11:56:15.756Z,102158.56
2024-01-24T11:58:44.557Z,102139.16
2024-01-24T12:01:14.064Z,102148.28
2024-01-24T12:03:50.643Z,102166.00
2024-01-24T12:06:20.513Z,102163.19
2024-01-24T12:08:58.170Z,102167.31
2024-01-24T12:11:27.926Z,102171.63
2024-01-24T12:13:56.793Z,102164.06
2024-01-24T12:16:27.704Z,102159.34
2024-01-24T12:18:57.362Z,102168.50
2024-01-24T12:21:28.460Z,102172.16
2024-01-24T12:23:57.169Z,102205.06
2024-01-24T12:26:27.211Z,102177.41
2024-01-24T12:28:55.473Z,102196.34
2024-01-24T12:31:28.689Z,102180.72
2024-01-24T12:33:59.186Z,102194.84
2024-01-24T12:36:28.134Z,102188.09
2024-01-24T12:38:58.658Z,102198.47
2024-01-24T12:41:27.573Z,102197.78
2024-01-24T12:43:57.916Z,102192.72
2024-01-24T12:46:26.836Z,102204.53
2024-01-24T12:48:55.911Z,102200.03
2024-01-24T12:51:24.308Z,102207.19
2024-01-24T12:53:52.667Z,102212.50
2024-01-24T12:56:21.303Z,102229.13
2024-01-24T12:58:50.146Z,102231.53
2024-01-24T13:01:18.436Z,102252.34
2024-01-24T13:03:47.218Z,102232.72
2024-01-24T13:06:17.714Z,102249.19
2024-01-24T13:08:46.113Z,102246.66
2024-01-24T13:11:14.548Z,102243.38
2024-01-24T13:13:42.997Z,102261.63
2024-01-24T13:16:11.427Z,102272.69
2024-01-24T13:18:39.802Z,102255.78
2024-01-24T13:21:08.210Z,102266.66
2024-01-24T13:23:36.460Z,102280.22
2024-01-24T13:26:04.754Z,102288.41
2024-01-24T13:28:33.181Z,102296.34
2024-01-24T13:31:02.364Z,102288.16
2024-01-24T13:33:30.775Z,102282.47
2024-01-24T13:35:59.092Z,102287.63
2024-01-24T13:38:30.320Z,102293.97
2024-01-24T13:40:58.927Z,102294.13
2024-01-24T13:43:27.295Z,102312.88
2024-01-24T13:45:56.158Z,102320.00
2024-01-24T13:48:25.716Z,102311.03
2024-01-24T13:50:55.670Z,102319.22
2024-01-24T13:53:24.646Z,102318.41
2024-01-24T13:55:53.039Z,102325.66
2024-01-24T13:58:21.687Z,102329.28
2024-01-24T14:00:50.513Z,102322.16
2024-01-24T14:03:19.075Z,102318.81
2024-01-24T14:05:47.408Z,102336.09
2024-01-24T14:08:17.382Z,102331.03
2024-01-24T14:10:45.912Z,102346.50
2024-01-24T14:13:16.320Z,102350.94
2024-01-24T14:15:45.227Z,102375.63
2024-01-24T14:18:13.497Z,102372.28
2024-01-24T14:20:41.947Z,102395.81
2024-01-24T14:23:11.582Z,102389.66
2024-01-24T14:25:43.859Z,102395.38
2024-01-24T14:28:12.271Z,102390.25
2024-01-24T14:30:41.095Z,102393.31
2024-01-24T14:33:17.601Z,102397.91
2024-01-24T14:35:48.946Z,102404.25
2024-01-24T14:38:17.368Z,102412.47
2024-01-24T14:40:45.599Z,102408.13
2024-01-24T14:43:14.737Z,102411.81
2024-01-24T14:45:45.139Z,102428.00
2024-01-24T14:48:13.592Z,102434.34
2024-01-24T14:50:43.402Z,102438.06
2024-01-24T14:53:12.279Z,102443.50
2024-01-24T14:55:41.043Z,102440.03
2024-01-24T14:58:09.338Z,102450.91
2024-01-24T15:00:37.795Z,102453.63
2024-01-24T15:03:17.308Z,102469.88
2024-01-24T15:05:45.541Z,102461.94
2024-01-24T15:08:13.814Z,102466.66
2024-01-24T15:10:45.245Z,102462.31
2024-01-24T15:13:13.558Z,102453.47
2024-01-24T15:15:41.884Z,102451.78
2024-01-24T15:18:10.406Z,102482.38
2024-01-24T15:20:45.351Z,102475.28
2024-01-24T15:23:18.313Z,102475.44
2024-01-24T15:25:46.869Z,102483.72
2024-01-24T15:28:15.299Z,102491.00
2024-01-24T15:30:43.875Z,102490.19
2024-01-24T15:33:12.292Z,102512.75
2024-01-24T15:35:42.260Z,102498.53
2024-01-24T15:38:10.574Z,102506.78
2024-01-24T15:40:38.815Z,102519.44
2024-01-24T15:43:10.567Z,102524.88
2024-01-24T15:45:39.748Z,102524.13
2024-01-24T15:48:08.315Z,102525.13
2024-01-24T15:50:38.047Z,102526.16
2024-01-24T15:53:07.559Z,102534.38
2024-01-24T15:55:35.808Z,102535.22
2024-01-24T15:58:04.281Z,102556.75
2024-01-24T16:00:33.003Z,102535.34
2024-01-24T16:03:02.253Z,102531.13
2024-01-24T16:05:46.923Z,102538.31
2024-01-24T16:08:16.835Z,102547.44
2024-01-24T16:10:46.097Z,102547.56
2024-01-24T16:13:14.386Z,102546.81
2024-01-24T16:15:42.807Z,102549.50
2024-01-24T16:18:11.222Z,102548.66
2024-01-24T16:20:40.754Z,102559.59
2024-01-24T16:23:09.063Z,102552.28
2024-01-24T16:25:37.305Z,102554.06
2024-01-24T16:28:05.859Z,102570.31
2024-01-24T16:30:36.507Z,102560.63
2024-01-24T16:33:04.964Z,102565.25
2024-01-24T16:35:34.076Z,102575.94
2024-01-24T16:38:02.417Z,102566.13
2024-01-24T16:40:31.374Z,102588.53
2024-01-24T16:43:03.164Z,102596.59
2024-01-24T16:45:31.437Z,102590.28
2024-01-24T16:47:59.701Z,102586.78
2024-01-24T16:50:28.236Z,102591.28
2024-01-24T16:52:56.476Z,102591.28
2024-01-24T16:55:24.790Z,102583.34
2024-01-24T16:57:53.042Z,102581.47
2024-01-24T17:00:21.559Z,102599.28
2024-01-24T17:02:54.497Z,102606.56
2024-01-24T17:05:27.001Z,102609.31
2024-01-24T17:07:55.320Z,102617.28
2024-01-24T17:10:23.870Z,102611.84
2024-01-24T17:12:52.222Z,102602.06
2024-01-24T17:15:20.567Z,102613.78
2024-01-24T17:17:48.896Z,102614.59
2024-01-24T17:20:17.198Z,102625.38
2024-01-24T17:22:45.416Z,102632.50
2024-01-24T17:25:19.146Z,102618.97
2024-01-24T17:27:47.428Z,102630.50
2024-01-24T17:30:15.984Z,102635.00
2024-01-24T17:32:44.390Z,102631.47
2024-01-24T17:35:12.626Z,102642.31
2024-01-24T17:37:40.996Z,102638.75
2024-01-24T17:40:10.571Z,102644.16
2024-01-24T17:42:40.662Z,102648.59
2024-01-24T17:45:09.790Z,102658.47
2024-01-24T17:47:39.219Z,102652.31
2024-01-24T17:50:08.367Z,102648.94
2024-01-24T17:52:39.289Z,102659.75
2024-01-24T17:55:08.402Z,102669.72
2024-01-24T17:57:36.383Z,102667.69
2024-01-24T18:00:06.961Z,102662.09
2024-01-24T18:02:35.611Z,102671.13
2024-01-24T18:05:04.964Z,102669.47
2024-01-24T18:07:34.099Z,102667.75
2024-01-24T18:10:03.340Z,102668.66
2024-01-24T18:12:32.592Z,102672.25
2024-01-24T18:15:01.060Z,102661.59
2024-01-24T18:17:29.453Z,102659.06
2024-01-24T18:19:57.808Z,102663.72
2024-01-24T18:22:26.247Z,102664.81
2024-01-24T18:24:54.677Z,102664.81
2024-01-24T18:27:23.075Z,102669.47
2024-01-24T18:29:54.021Z,102669.63
2024-01-24T18:32:22.997Z,102666.22
2024-01-24T18:34:51.657Z,102660.13
2024-01-24T18:37:19.914Z,102651.34
2024-01-24T18:39:49.176Z,102646.06
2024-01-24T18:42:17.909Z,102657.00
2024-01-24T18:44:47.438Z,102656.09
2024-01-24T18:47:16.027Z,102662.44
2024-01-24T18:49:44.860Z,102655.41
2024-01-24T18:52:14.438Z,102663.59
2024-01-24T18:54:44.165Z,102664.59
2024-01-24T18:57:13.066Z,102672.75
2024-01-24T18:59:42.332Z,102681.78
2024-01-24T19:02:12.817Z,102666.59
2024-01-24T19:04:42.419Z,102677.28
2024-01-24T19:07:10.949Z,102668.28
2024-01-24T19:09:40.222Z,102671.91
2024-01-24T19:12:09.562Z,102668.31
2024-01-24T19:14:39.170Z,102674.78
2024-01-24T19:17:10.369Z,102674.06
2024-01-24T19:19:41.569Z,102682.09
2024-01-24T19:22:09.881Z,102691.03
2024-01-24T19:24:38.106Z,102692.13
2024-01-24T19:27:06.970Z,102687.75
2024-01-24T19:29:35.403Z,102687.88
2024-01-24T19:32:03.963Z,102692.25
2024-01-24T19:34:32.560Z,102686.09
2024-01-24T19:37:02.094Z,102689.72
2024-01-24T19:39:30.421Z,102688.72
2024-01-24T19:41:58.764Z,102692.34
2024-01-24T19:44:27.218Z,102684.34
2024-01-24T19:46:57.236Z,102688.72
2024-01-24T19:49:25.824Z,102700.53
2024-01-24T19:51:54.444Z,102689.72
2024-01-24T19:54:22.981Z,102703.22
2024-01-24T19:56:51.287Z,102699.59
2024-01-24T19:59:19.534Z,102697.06
2024-01-24T20:01:47.795Z,102695.22
2024-01-24T20:04:17.241Z,102699.81
2024-01-24T20:06:45.755Z,102709.66
2024-01-24T20:09:16.904Z,102709.72
2024-01-24T20:11:45.079Z,102717.78
2024-01-24T20:14:13.641Z,102710.56
2024-01-24T20:16:42.099Z,102712.25
2024-01-24T20:19:10.581Z,102703.31
2024-01-24T20:21:42.333Z,102714.09
2024-01-24T20:24:12.834Z,102728.31
2024-01-24T20:26:41.283Z,102715.78
2024-01-24T20:29:09.776Z,102727.41
2024-01-24T20:31:38.022Z,102730.00
2024-01-24T20:34:07.923Z,102719.34
2024-01-24T20:36:37.018Z,102719.34
2024-01-24T20:39:05.881Z,102730.94
2024-01-24T20:41:34.090Z,102738.88
2024-01-24T20:44:02.296Z,102730.72
2024-01-24T20:46:30.553Z,102730.72
2024-01-24T20:48:58.870Z,102719.19
2024-01-24T20:51:27.154Z,102717.38
2024-01-24T20:53:55.436Z,102711.13
2024-01-24T20:56:23.756Z,102713.75
2024-01-24T20:58:52.739Z,102717.31
2024-01-24T21:01:21.720Z,102716.44
2024-01-24T21:03:51.138Z,102712.00
2024-01-24T21:06:23.550Z,102719.84
2024-01-24T21:08:51.871Z,102715.25
2024-01-24T21:11:20.613Z,102714.41
2024-01-24T21:13:49.069Z,102719.97
2024-01-24T21:16:18.558Z,102722.66
2024-01-24T21:18:46.917Z,102722.53
2024-01-24T21:21:15.265Z,102727.78
2024-01-24T21:23:43.527Z,102722.22
2024-01-24T21:26:12.313Z,102722.84
2024-01-24T21:28:41.092Z,102727.25
2024-01-24T21:31:09.916Z,102719.19
2024-01-24T21:33:38.361Z,102715.59
2024-01-24T21:36:08.994Z,102727.31
2024-01-24T21:38:37.384Z,102714.81
2024-01-24T21:41:06.685Z,102712.06
2024-01-24T21:43:34.960Z,102728.16
2024-01-24T21:46:03.247Z,102729.88
2024-01-24T21:48:31.519Z,102732.56
2024-01-24T21:50:59.730Z,102740.50
2024-01-24T21:53:27.973Z,102738.69
2024-01-24T21:55:56.986Z,102743.00
2024-01-24T21:58:25.698Z,102734.88
2024-01-24T22:00:54.322Z,102726.88
2024-01-24T22:03:22.978Z,102740.44
2024-01-24T22:05:51.204Z,102754.78
2024-01-24T22:08:21.093Z,102740.44
2024-01-24T22:10:49.694Z,102749.47
2024-01-24T22:13:17.898Z,102747.63
2024-01-24T22:15:51.590Z,102757.63
2024-01-24T22:18:22.878Z,102758.56
2024-01-24T22:20:55.826Z,102763.94
2024-01-24T22:23:24.229Z,102755.94
2024-01-24T22:25:52.449Z,102764.00
2024-01-24T22:28:20.760Z,102764.91
2024-01-24T22:30:49.840Z,102765.88
2024-01-24T22:33:18.894Z,102774.03
2024-01-24T22:35:47.424Z,102765.09
2024-01-24T22:38:15.865Z,102766.94
2024-01-24T22:40:44.053Z,102763.41
2024-01-24T22:43:13.873Z,102767.13
2024-01-24T22:45:43.364Z,102764.59
2024-01-24T22:48:12.732Z,102769.03
2024-01-24T22:50:41.685Z,102770.03
2024-01-24T22:53:10.069Z,102766.66
2024-01-24T22:55:38.267Z,102788.31
2024-01-24T22:58:06.546Z,102777.66
2024-01-24T23:00:34.937Z,102779.56
2024-01-24T23:03:03.537Z,102776.16
2024-01-24T23:05:31.987Z,102786.94
2024-01-24T23:08:01.108Z,102794.97
2024-01-24T23:10:29.571Z,102794.13
2024-01-24T23:12:57.850Z,102797.97
2024-01-24T23:15:26.464Z,102808.84
2024-01-24T23:17:55.186Z,102813.47
2024-01-24T23:20:23.503Z,102817.25
2024-01-24T23:22:51.748Z,102824.63
2024-01-24T23:25:20.295Z,102835.69
2024-01-24T23:27:48.634Z,102826.06
2024-01-24T23:30:17.133Z,102820.13
2024-01-24T23:32:46.786Z,102824.88
2024-01-24T23:35:15.569Z,102836.78
2024-01-24T23:37:44.020Z,102822.78
2024-01-24T23:40:12.963Z,102823.00
2024-01-24T23:42:41.368Z,102825.03
2024-01-24T23:45:09.917Z,102825.16
2024-01-24T23:47:38.214Z,102828.88
2024-01-24T23:50:07.154Z,102829.97
2024-01-24T23:52:35.905Z,102830.16
2024-01-24T23:55:05.722Z,102826.75
2024-01-24T23:57:34.077Z,102829.56
